createdAt,value
2017-06-10T00:01:41.487Z,0
2017-06-10T00:04:05.399Z,0
2017-06-10T00:06:20.852Z,0
2017-06-10T00:08:44.759Z,0
2017-06-10T00:11:00.214Z,0
2017-06-10T00:13:24.116Z,0
2017-06-10T00:15:31.144Z,0
2017-06-10T00:17:55.077Z,0
2017-06-10T00:20:18.949Z,0
2017-06-10T00:26:54.986Z,0
2017-06-10T00:29:18.925Z,0
2017-06-10T00:31:34.398Z,0
2017-06-10T00:36:00.671Z,0
2017-06-10T00:38:24.539Z,0
2017-06-10T00:40:48.429Z,0
2017-06-10T00:43:03.855Z,0
2017-06-10T00:45:10.844Z,0
2017-06-10T00:47:34.740Z,0
2017-06-10T00:49:50.197Z,0
2017-06-10T00:52:05.676Z,0
2017-06-10T00:54:29.586Z,0
2017-06-10T00:56:53.461Z,0
2017-06-10T00:59:17.331Z,0
2017-06-10T01:03:42.531Z,0
2017-06-10T01:06:06.432Z,0
2017-06-10T01:08:21.904Z,0
2017-06-10T01:10:45.791Z,0
2017-06-10T01:13:09.558Z,0
2017-06-10T01:15:33.438Z,0
2017-06-10T01:17:48.821Z,0
2017-06-10T01:20:13.725Z,0
2017-06-10T01:22:37.594Z,0
2017-06-10T01:26:54.446Z,0
2017-06-10T01:29:09.878Z,0
2017-06-10T01:33:27.189Z,0
2017-06-10T01:35:51.028Z,0
2017-06-10T01:38:06.471Z,0
2017-06-10T01:40:21.852Z,0
2017-06-10T01:42:37.227Z,0
2017-06-10T01:44:52.723Z,0
2017-06-10T01:49:26.432Z,0
2017-06-10T01:51:50.331Z,0
2017-06-10T01:54:05.789Z,0
2017-06-10T01:56:29.577Z,0
2017-06-10T01:58:53.351Z,0
2017-06-10T02:01:17.126Z,0
2017-06-10T02:03:40.917Z,0
2017-06-10T02:06:04.790Z,0
2017-06-10T02:08:20.249Z,0
2017-06-10T02:10:44.046Z,0
2017-06-10T02:15:09.233Z,0
2017-06-10T02:17:24.649Z,0
2017-06-10T02:21:49.828Z,0
2017-06-10T02:23:56.826Z,0
2017-06-10T02:26:20.625Z,0
2017-06-10T02:28:44.490Z,0
2017-06-10T02:31:08.271Z,0
2017-06-10T02:33:23.636Z,0
2017-06-10T02:35:39.002Z,0
2017-06-10T02:38:02.806Z,0
2017-06-10T02:40:26.569Z,0
2017-06-10T02:42:50.354Z,0
2017-06-10T02:45:14.133Z,0
2017-06-10T02:47:37.889Z,0
2017-06-10T02:50:01.674Z,0
2017-06-10T02:52:25.451Z,0
2017-06-10T02:54:49.223Z,0
2017-06-10T02:57:04.589Z,0
2017-06-10T02:59:28.376Z,0
2017-06-10T03:01:44.626Z,0
2017-06-10T03:04:00.051Z,0
2017-06-10T03:06:23.842Z,0
2017-06-10T03:08:47.717Z,0
2017-06-10T03:11:12.515Z,0
2017-06-10T03:13:36.395Z,0
2017-06-10T03:16:00.279Z,0
2017-06-10T03:18:24.136Z,0
2017-06-10T03:22:59.265Z,0
2017-06-10T03:25:23.192Z,0
2017-06-10T03:27:47.047Z,0
2017-06-10T03:30:02.403Z,0
2017-06-10T03:32:26.212Z,5
2017-06-10T03:34:33.244Z,5
2017-06-10T03:36:57.074Z,5
2017-06-10T03:39:12.527Z,5
2017-06-10T03:41:28.936Z,10
2017-06-10T03:43:44.412Z,10
2017-06-10T03:46:08.211Z,10
2017-06-10T03:48:33.106Z,15
2017-06-10T03:50:48.573Z,15
2017-06-10T03:53:14.416Z,15
2017-06-10T03:55:39.318Z,20
2017-06-10T03:57:55.822Z,20
2017-06-10T04:00:20.633Z,25
2017-06-10T04:02:44.501Z,25
2017-06-10T04:05:08.374Z,30
2017-06-10T04:07:32.241Z,30
2017-06-10T04:09:47.607Z,35
2017-06-10T04:12:11.508Z,35
2017-06-10T04:14:42.156Z,40
2017-06-10T04:17:06.022Z,45
2017-06-10T04:19:29.911Z,50
2017-06-10T04:21:37.048Z,70
2017-06-10T04:23:52.571Z,75
2017-06-10T04:26:16.623Z,85
2017-06-10T04:28:40.844Z,90
2017-06-10T04:31:05.202Z,95
2017-06-10T04:35:23.234Z,110
2017-06-10T04:37:39.565Z,120
2017-06-10T04:40:06.421Z,85
2017-06-10T04:42:31.353Z,125
2017-06-10T04:44:56.366Z,130
2017-06-10T04:47:21.499Z,140
2017-06-10T04:49:46.733Z,115
2017-06-10T04:52:11.954Z,160
2017-06-10T04:54:39.225Z,145
2017-06-10T04:57:06.501Z,170
2017-06-10T04:59:32.009Z,170
2017-06-10T05:03:50.623Z,175
2017-06-10T05:06:16.305Z,195
2017-06-10T05:08:42.041Z,180
2017-06-10T05:10:59.361Z,190
2017-06-10T05:13:25.361Z,205
2017-06-10T05:15:42.845Z,205
2017-06-10T05:18:00.407Z,215
2017-06-10T05:20:26.615Z,220
2017-06-10T05:24:54.568Z,230
2017-06-10T05:27:22.038Z,240
2017-06-10T05:29:50.550Z,255
2017-06-10T05:32:18.094Z,265
2017-06-10T05:34:36.206Z,270
2017-06-10T05:39:16.304Z,285
2017-06-10T05:41:45.214Z,300
2017-06-10T05:46:17.999Z,330
2017-06-10T05:48:45.132Z,360
2017-06-10T05:51:12.294Z,385
2017-06-10T05:53:39.463Z,560
2017-06-10T05:56:06.618Z,1630
2017-06-10T05:58:25.276Z,1645
2017-06-10T06:00:52.677Z,1340
2017-06-10T06:03:22.096Z,1625
2017-06-10T06:05:51.527Z,1535
2017-06-10T06:08:10.352Z,1575
2017-06-10T06:10:29.222Z,1500
2017-06-10T06:12:56.711Z,390
2017-06-10T06:15:30.692Z,1425
2017-06-10T06:17:58.019Z,1395
2017-06-10T06:20:27.291Z,1560
2017-06-10T06:22:52.576Z,490
2017-06-10T06:25:21.663Z,1495
2017-06-10T06:27:48.721Z,1630
2017-06-10T06:30:15.840Z,510
2017-06-10T06:32:42.830Z,540
2017-06-10T06:35:10.032Z,555
2017-06-10T06:37:37.305Z,580
2017-06-10T06:40:12.286Z,565
2017-06-10T06:42:32.018Z,520
2017-06-10T06:45:06.264Z,495
2017-06-10T06:47:26.889Z,490
2017-06-10T06:49:54.034Z,500
2017-06-10T06:52:22.992Z,550
2017-06-10T06:54:49.816Z,570
2017-06-10T06:57:16.498Z,585
2017-06-10T06:59:35.437Z,600
2017-06-10T07:02:01.913Z,630
2017-06-10T07:04:28.227Z,645
2017-06-10T07:06:54.437Z,590
2017-06-10T07:09:27.398Z,470
2017-06-10T07:11:53.413Z,445
2017-06-10T07:14:19.423Z,490
2017-06-10T07:16:36.896Z,585
2017-06-10T07:19:02.855Z,620
2017-06-10T07:21:20.239Z,740
2017-06-10T07:23:46.089Z,750
2017-06-10T07:26:12.930Z,720
2017-06-10T07:28:38.753Z,765
2017-06-10T07:31:06.614Z,810
2017-06-10T07:35:36.797Z,785
2017-06-10T07:37:54.043Z,730
2017-06-10T07:40:19.854Z,720
2017-06-10T07:42:45.607Z,740
2017-06-10T07:45:11.314Z,635
2017-06-10T07:47:38.060Z,560
2017-06-10T07:50:05.826Z,500
2017-06-10T07:52:31.547Z,475
2017-06-10T07:54:58.292Z,460
2017-06-10T07:57:24.029Z,430
2017-06-10T07:59:49.889Z,415
2017-06-10T08:02:07.129Z,390
2017-06-10T08:04:32.902Z,395
2017-06-10T08:06:58.747Z,390
2017-06-10T08:09:24.678Z,385
2017-06-10T08:11:50.591Z,390
2017-06-10T08:14:17.540Z,390
2017-06-10T08:16:43.478Z,385
2017-06-10T08:21:11.760Z,395
2017-06-10T08:25:14.139Z,405
2017-06-10T08:27:40.164Z,400
2017-06-10T08:30:06.112Z,385
2017-06-10T08:32:32.074Z,390
2017-06-10T08:34:58.104Z,390
2017-06-10T08:37:24.147Z,390
2017-06-10T08:39:50.276Z,385
2017-06-10T08:42:16.445Z,395
2017-06-10T08:44:42.576Z,410
2017-06-10T08:47:08.811Z,410
2017-06-10T08:49:26.367Z,415
2017-06-10T08:53:48.338Z,430
2017-06-10T08:56:14.634Z,425
2017-06-10T08:58:40.863Z,420
2017-06-10T09:00:58.537Z,420
2017-06-10T09:03:24.851Z,405
2017-06-10T09:05:42.533Z,390
2017-06-10T09:08:01.230Z,390
2017-06-10T09:10:18.959Z,395
2017-06-10T09:14:21.685Z,385
2017-06-10T09:16:30.810Z,170
2017-06-10T09:18:48.369Z,395
2017-06-10T09:21:14.510Z,135
2017-06-10T09:25:34.449Z,135
2017-06-10T09:28:00.497Z,330
2017-06-10T09:30:26.526Z,295
2017-06-10T09:32:52.567Z,125
2017-06-10T09:35:18.554Z,125
2017-06-10T09:37:44.457Z,115
2017-06-10T09:40:10.226Z,115
2017-06-10T09:42:27.294Z,285
2017-06-10T09:44:44.314Z,190
2017-06-10T09:47:01.301Z,130
2017-06-10T09:49:26.700Z,275
2017-06-10T09:51:52.132Z,255
2017-06-10T09:54:17.550Z,260
2017-06-10T09:56:34.438Z,245
2017-06-10T10:01:10.746Z,245
2017-06-10T10:03:36.301Z,240
2017-06-10T10:06:01.793Z,220
2017-06-10T10:08:27.327Z,215
2017-06-10T10:12:55.083Z,165
2017-06-10T10:15:20.624Z,185
2017-06-10T10:17:46.148Z,185
2017-06-10T10:20:11.643Z,185
2017-06-10T10:22:37.176Z,185
2017-06-10T10:24:54.183Z,185
2017-06-10T10:27:19.676Z,180
2017-06-10T10:29:36.595Z,180
2017-06-10T10:32:02.000Z,175
2017-06-10T10:34:27.394Z,175
2017-06-10T10:36:44.298Z,115
2017-06-10T10:39:09.618Z,100
2017-06-10T10:41:34.903Z,110
2017-06-10T10:44:00.228Z,150
2017-06-10T10:46:25.534Z,175
2017-06-10T10:48:50.827Z,170
2017-06-10T10:51:16.023Z,165
2017-06-10T10:53:41.241Z,105
2017-06-10T10:56:06.433Z,105
2017-06-10T10:58:23.019Z,155
2017-06-10T11:00:48.142Z,155
2017-06-10T11:03:13.237Z,150
2017-06-10T11:05:38.320Z,145
2017-06-10T11:08:03.441Z,140
2017-06-10T11:10:28.548Z,140
2017-06-10T11:12:53.666Z,140
2017-06-10T11:15:18.764Z,135
2017-06-10T11:17:26.887Z,130
2017-06-10T11:19:51.969Z,120
2017-06-10T11:22:17.064Z,120
2017-06-10T11:24:42.187Z,115
2017-06-10T11:27:07.271Z,110
2017-06-10T11:29:32.273Z,105
2017-06-10T11:31:57.289Z,100
2017-06-10T11:34:05.282Z,100
2017-06-10T11:36:30.277Z,95
2017-06-10T11:38:46.790Z,95
2017-06-10T11:41:11.696Z,95
2017-06-10T11:43:28.172Z,95
2017-06-10T11:45:53.075Z,90
2017-06-10T11:48:09.599Z,90
2017-06-10T11:50:34.578Z,90
2017-06-10T11:52:51.104Z,90
2017-06-10T11:55:16.084Z,85
2017-06-10T11:59:44.192Z,85
2017-06-10T12:02:09.203Z,85
2017-06-10T12:04:34.197Z,85
2017-06-10T12:06:59.200Z,85
2017-06-10T12:11:26.373Z,85
2017-06-10T12:13:51.373Z,85
2017-06-10T12:16:16.280Z,85
2017-06-10T12:18:41.165Z,85
2017-06-10T12:21:06.069Z,85
2017-06-10T12:23:31.067Z,80
2017-06-10T12:25:55.873Z,80
2017-06-10T12:28:20.766Z,85
2017-06-10T12:30:37.186Z,70
2017-06-10T12:33:02.161Z,80
2017-06-10T12:35:28.100Z,80
2017-06-10T12:37:44.611Z,80
2017-06-10T12:40:01.011Z,80
2017-06-10T12:42:25.897Z,80
2017-06-10T12:44:50.806Z,80
2017-06-10T12:47:15.680Z,80
2017-06-10T12:49:32.140Z,80
2017-06-10T12:51:57.001Z,80
2017-06-10T12:54:21.903Z,80
2017-06-10T12:56:38.318Z,80
2017-06-10T12:59:03.227Z,80
2017-06-10T13:01:28.123Z,80
2017-06-10T13:03:53.003Z,80
2017-06-10T13:06:17.902Z,80
2017-06-10T13:08:42.800Z,75
2017-06-10T13:11:07.702Z,75
2017-06-10T13:13:32.607Z,75
2017-06-10T13:15:57.511Z,75
2017-06-10T13:20:24.481Z,75
2017-06-10T13:22:49.375Z,75
2017-06-10T13:27:07.867Z,75
2017-06-10T13:29:32.739Z,75
2017-06-10T13:31:49.166Z,75
2017-06-10T13:34:14.038Z,75
2017-06-10T13:36:30.350Z,75
2017-06-10T13:38:55.121Z,75
2017-06-10T13:41:11.447Z,75
2017-06-10T13:43:36.243Z,75
2017-06-10T13:46:01.035Z,75
2017-06-10T13:48:25.930Z,75
2017-06-10T13:50:50.838Z,75
2017-06-10T13:53:07.251Z,80
2017-06-10T13:55:32.148Z,75
2017-06-10T13:57:48.458Z,75
2017-06-10T14:00:04.847Z,70
2017-06-10T14:02:29.734Z,75
2017-06-10T14:04:54.542Z,80
2017-06-10T14:07:19.431Z,85
2017-06-10T14:09:35.755Z,85
2017-06-10T14:12:00.540Z,90
2017-06-10T14:14:25.468Z,95
2017-06-10T14:16:50.345Z,90
2017-06-10T14:19:15.262Z,90
2017-06-10T14:21:31.688Z,90
2017-06-10T14:23:48.085Z,90
2017-06-10T14:26:12.977Z,90
2017-06-10T14:28:37.880Z,90
2017-06-10T14:31:02.866Z,90
2017-06-10T14:33:27.767Z,85
2017-06-10T14:35:52.666Z,80
2017-06-10T14:38:17.570Z,80
2017-06-10T14:40:42.460Z,75
2017-06-10T14:43:07.259Z,80
2017-06-10T14:45:32.178Z,70
2017-06-10T14:47:57.063Z,70
2017-06-10T14:50:21.960Z,65
2017-06-10T14:52:38.393Z,60
2017-06-10T14:54:54.769Z,55
2017-06-10T14:57:11.151Z,55
2017-06-10T14:59:35.958Z,75
2017-06-10T15:02:00.757Z,75
2017-06-10T15:04:17.062Z,65
2017-06-10T15:06:41.863Z,80
2017-06-10T15:09:06.647Z,90
2017-06-10T15:11:31.463Z,90
2017-06-10T15:13:56.261Z,90
2017-06-10T15:16:04.084Z,90
2017-06-10T15:18:28.857Z,85
2017-06-10T15:20:45.180Z,85
2017-06-10T15:25:20.622Z,85
2017-06-10T15:27:37.026Z,85
2017-06-10T15:30:01.816Z,80
2017-06-10T15:32:26.609Z,80
2017-06-10T15:34:51.419Z,80
2017-06-10T15:37:16.192Z,80
2017-06-10T15:41:34.595Z,80
2017-06-10T15:43:59.486Z,75
2017-06-10T15:46:24.288Z,75
2017-06-10T15:48:49.081Z,70
2017-06-10T15:51:13.886Z,70
2017-06-10T15:53:38.661Z,70
2017-06-10T15:56:03.470Z,70
2017-06-10T15:58:28.263Z,70
2017-06-10T16:00:36.103Z,65
2017-06-10T16:03:00.842Z,65
2017-06-10T16:07:19.246Z,65
2017-06-10T16:09:44.017Z,65
2017-06-10T16:12:08.807Z,65
2017-06-10T16:14:33.619Z,65
2017-06-10T16:16:49.934Z,65
2017-06-10T16:19:14.721Z,65
2017-06-10T16:21:39.496Z,65
2017-06-10T16:24:04.325Z,65
2017-06-10T16:26:20.641Z,65
2017-06-10T16:28:45.409Z,60
2017-06-10T16:33:12.252Z,60
2017-06-10T16:35:36.963Z,60
2017-06-10T16:37:53.265Z,60
2017-06-10T16:40:17.957Z,60
2017-06-10T16:42:42.646Z,60
2017-06-10T16:45:07.340Z,60
2017-06-10T16:47:32.024Z,60
2017-06-10T16:49:48.227Z,60
2017-06-10T16:52:12.920Z,60
2017-06-10T16:54:29.121Z,60
2017-06-10T16:56:53.743Z,60
2017-06-10T17:01:28.467Z,60
2017-06-10T17:03:44.650Z,60
2017-06-10T17:06:09.236Z,60
2017-06-10T17:08:33.864Z,60
2017-06-10T17:10:58.483Z,55
2017-06-10T17:13:14.601Z,55
2017-06-10T17:15:30.749Z,55
2017-06-10T17:17:55.377Z,55
2017-06-10T17:20:19.989Z,55
2017-06-10T17:22:44.623Z,55
2017-06-10T17:27:19.298Z,55
2017-06-10T17:29:43.926Z,55
2017-06-10T17:34:18.672Z,50
2017-06-10T17:36:43.301Z,50
2017-06-10T17:39:07.867Z,50
2017-06-10T17:41:32.483Z,50
2017-06-10T17:43:57.063Z,50
2017-06-10T17:46:21.663Z,50
2017-06-10T17:48:37.749Z,45
2017-06-10T17:51:02.360Z,45
2017-06-10T17:53:26.930Z,45
2017-06-10T17:55:51.481Z,45
2017-06-10T17:58:15.997Z,45
2017-06-10T18:00:40.581Z,45
2017-06-10T18:03:05.162Z,40
2017-06-10T18:05:21.267Z,40
2017-06-10T18:09:47.324Z,40
2017-06-10T18:12:03.434Z,40
2017-06-10T18:14:27.992Z,35
2017-06-10T18:16:52.530Z,35
2017-06-10T18:19:17.068Z,35
2017-06-10T18:21:33.130Z,35
2017-06-10T18:23:49.163Z,30
2017-06-10T18:26:13.672Z,30
2017-06-10T18:28:38.124Z,30
2017-06-10T18:31:02.636Z,30
2017-06-10T18:33:27.098Z,25
2017-06-10T18:35:43.122Z,25
2017-06-10T18:38:07.582Z,25
2017-06-10T18:40:32.074Z,25
2017-06-10T18:45:06.629Z,20
2017-06-10T18:47:31.151Z,20
2017-06-10T18:49:47.149Z,20
2017-06-10T18:52:03.170Z,15
2017-06-10T18:54:27.649Z,15
2017-06-10T18:56:52.118Z,15
2017-06-10T18:59:16.566Z,15
2017-06-10T19:01:41.031Z,10
2017-06-10T19:04:05.469Z,10
2017-06-10T19:06:29.909Z,10
2017-06-10T19:10:55.892Z,10
2017-06-10T19:13:20.359Z,5
2017-06-10T19:15:44.776Z,5
2017-06-10T19:18:09.187Z,5
2017-06-10T19:22:35.166Z,5
2017-06-10T19:24:59.551Z,0
2017-06-10T19:27:23.914Z,0
2017-06-10T19:29:48.286Z,0
2017-06-10T19:32:12.642Z,0
2017-06-10T19:34:28.547Z,0
2017-06-10T19:36:52.927Z,0
2017-06-10T19:39:17.273Z,0
2017-06-10T19:41:33.181Z,0
2017-06-10T19:43:57.535Z,0
2017-06-10T19:46:21.869Z,0
2017-06-10T19:48:37.734Z,0
2017-06-10T19:50:53.562Z,0
2017-06-10T19:53:17.865Z,0
2017-06-10T19:55:42.184Z,0
2017-06-10T19:58:06.496Z,0
2017-06-10T20:00:30.795Z,0
2017-06-10T20:02:55.111Z,0
2017-06-10T20:05:19.445Z,0
2017-06-10T20:07:43.752Z,0
2017-06-10T20:10:08.064Z,0
2017-06-10T20:12:32.405Z,0
2017-06-10T20:14:56.719Z,0
2017-06-10T20:17:04.130Z,0
2017-06-10T20:19:28.396Z,0
2017-06-10T20:21:52.669Z,0
2017-06-10T20:24:16.951Z,0
2017-06-10T20:26:32.799Z,0
2017-06-10T20:28:57.078Z,0
2017-06-10T20:31:12.911Z,0
2017-06-10T20:33:20.253Z,0
2017-06-10T20:37:55.014Z,0
2017-06-10T20:40:19.256Z,0
2017-06-10T20:42:43.538Z,0
2017-06-10T20:44:59.360Z,0
2017-06-10T20:49:25.575Z,0
2017-06-10T20:51:49.840Z,0
2017-06-10T20:54:14.096Z,0
2017-06-10T20:56:38.294Z,0
2017-06-10T20:59:02.507Z,0
2017-06-10T21:01:26.735Z,0
2017-06-10T21:03:50.931Z,0
2017-06-10T21:06:15.122Z,0
2017-06-10T21:08:39.335Z,0
2017-06-10T21:11:03.571Z,0
2017-06-10T21:13:27.717Z,0
2017-06-10T21:15:43.441Z,0
2017-06-10T21:18:07.601Z,0
2017-06-10T21:20:31.760Z,0
2017-06-10T21:22:56.934Z,0
2017-06-10T21:25:21.120Z,0
2017-06-10T21:27:45.313Z,0
2017-06-10T21:30:09.490Z,0
2017-06-10T21:34:35.340Z,0
2017-06-10T21:36:42.673Z,0
2017-06-10T21:39:06.956Z,0
2017-06-10T21:41:31.146Z,0
2017-06-10T21:43:46.995Z,0
2017-06-10T21:46:11.208Z,0
2017-06-10T21:48:35.387Z,0
2017-06-10T21:50:59.574Z,0
2017-06-10T21:53:23.749Z,0
2017-06-10T21:55:39.512Z,0
2017-06-10T21:58:03.741Z,0
2017-06-10T22:00:27.923Z,0
2017-06-10T22:02:52.106Z,0
2017-06-10T22:09:28.141Z,0
2017-06-10T22:11:52.407Z,0
2017-06-10T22:14:08.238Z,0
2017-06-10T22:16:32.449Z,0
2017-06-10T22:18:56.644Z,0
2017-06-10T22:21:20.841Z,0
2017-06-10T22:25:55.966Z,0
2017-06-10T22:28:20.161Z,0
2017-06-10T22:30:35.909Z,0
2017-06-10T22:33:00.133Z,0
2017-06-10T22:35:24.323Z,0
2017-06-10T22:37:40.064Z,0
2017-06-10T22:40:04.297Z,0
2017-06-10T22:44:21.446Z,0
2017-06-10T22:46:37.220Z,0
2017-06-10T22:49:01.404Z,0
2017-06-10T22:51:25.578Z,0
2017-06-10T22:53:49.754Z,0
2017-06-10T22:56:13.931Z,0
2017-06-10T22:58:29.685Z,0
2017-06-10T23:00:45.380Z,0
2017-06-10T23:03:09.592Z,0
2017-06-10T23:05:33.785Z,0
2017-06-10T23:07:57.970Z,0
2017-06-10T23:10:22.054Z,0
2017-06-10T23:12:46.244Z,0
2017-06-10T23:15:10.416Z,0
2017-06-10T23:17:34.594Z,0
2017-06-10T23:19:50.345Z,0
2017-06-10T23:22:06.073Z,0
2017-06-10T23:24:30.238Z,0
2017-06-10T23:26:54.326Z,0
2017-06-10T23:29:09.990Z,0
2017-06-10T23:33:35.609Z,0
2017-06-10T23:40:02.567Z,0
2017-06-10T23:42:26.733Z,0
2017-06-10T23:47:00.827Z,0
2017-06-10T23:53:27.767Z,0
2017-06-10T23:55:43.412Z,0
